sensor_id;sensor_type;location;lat;lon;timestamp;P1;durP1;ratioP1;P2;durP2;ratioP2
51764;SDS011;37835;53.256;6.456;2022-12-18T00:01:03;125.97;;;45.77;;
51764;SDS011;37835;53.256;6.456;2022-12-18T00:03:42;138.10;;;46.33;;
51764;SDS011;37835;53.256;6.456;2022-12-18T00:06:08;125.77;;;45.80;;
51764;SDS011;37835;53.256;6.456;2022-12-18T00:08:34;130.87;;;46.20;;
51764;SDS011;37835;53.256;6.456;2022-12-18T00:11:03;127.47;;;44.77;;
51764;SDS011;37835;53.256;6.456;2022-12-18T00:13:30;137.07;;;46.67;;
51764;SDS011;37835;53.256;6.456;2022-12-18T00:16:00;137.27;;;45.43;;
51764;SDS011;37835;53.256;6.456;2022-12-18T00:18:31;131.00;;;44.53;;
51764;SDS011;37835;53.256;6.456;2022-12-18T00:21:01;140.23;;;45.67;;
51764;SDS011;37835;53.256;6.456;2022-12-18T00:23:29;127.57;;;44.17;;
51764;SDS011;37835;53.256;6.456;2022-12-18T00:26:01;131.03;;;43.67;;
51764;SDS011;37835;53.256;6.456;2022-12-18T00:28:28;142.10;;;46.37;;
51764;SDS011;37835;53.256;6.456;2022-12-18T00:31:01;138.57;;;44.83;;
51764;SDS011;37835;53.256;6.456;2022-12-18T00:33:38;130.23;;;44.23;;
51764;SDS011;37835;53.256;6.456;2022-12-18T00:36:07;127.90;;;43.33;;
51764;SDS011;37835;53.256;6.456;2022-12-18T00:38:36;127.00;;;44.43;;
51764;SDS011;37835;53.256;6.456;2022-12-18T00:41:03;127.03;;;44.40;;
51764;SDS011;37835;53.256;6.456;2022-12-18T00:43:30;127.50;;;44.47;;
51764;SDS011;37835;53.256;6.456;2022-12-18T00:45:56;131.43;;;44.80;;
51764;SDS011;37835;53.256;6.456;2022-12-18T00:48:21;134.33;;;44.37;;
51764;SDS011;37835;53.256;6.456;2022-12-18T00:50:47;131.20;;;44.10;;
51764;SDS011;37835;53.256;6.456;2022-12-18T00:53:14;135.37;;;45.07;;
51764;SDS011;37835;53.256;6.456;2022-12-18T00:55:40;142.63;;;46.00;;
51764;SDS011;37835;53.256;6.456;2022-12-18T00:58:06;126.33;;;44.27;;
51764;SDS011;37835;53.256;6.456;2022-12-18T01:00:32;130.30;;;45.67;;
51764;SDS011;37835;53.256;6.456;2022-12-18T01:02:58;130.53;;;45.27;;
51764;SDS011;37835;53.256;6.456;2022-12-18T01:05:24;135.27;;;46.03;;
51764;SDS011;37835;53.256;6.456;2022-12-18T01:07:50;126.17;;;44.37;;
51764;SDS011;37835;53.256;6.456;2022-12-18T01:10:16;130.40;;;44.83;;
51764;SDS011;37835;53.256;6.456;2022-12-18T01:12:41;129.10;;;43.93;;
51764;SDS011;37835;53.256;6.456;2022-12-18T01:15:07;136.90;;;44.80;;
51764;SDS011;37835;53.256;6.456;2022-12-18T01:17:34;129.10;;;42.10;;
51764;SDS011;37835;53.256;6.456;2022-12-18T01:20:00;126.00;;;43.83;;
51764;SDS011;37835;53.256;6.456;2022-12-18T01:22:25;123.23;;;43.73;;
51764;SDS011;37835;53.256;6.456;2022-12-18T01:24:51;125.13;;;43.27;;
51764;SDS011;37835;53.256;6.456;2022-12-18T01:27:16;125.47;;;42.73;;
51764;SDS011;37835;53.256;6.456;2022-12-18T01:29:42;126.83;;;43.93;;
51764;SDS011;37835;53.256;6.456;2022-12-18T01:32:08;126.90;;;43.33;;
51764;SDS011;37835;53.256;6.456;2022-12-18T01:34:35;128.90;;;44.80;;
51764;SDS011;37835;53.256;6.456;2022-12-18T01:37:02;130.13;;;43.37;;
51764;SDS011;37835;53.256;6.456;2022-12-18T01:39:28;120.63;;;41.07;;
51764;SDS011;37835;53.256;6.456;2022-12-18T01:41:54;122.83;;;41.73;;
51764;SDS011;37835;53.256;6.456;2022-12-18T01:49:47;124.53;;;42.17;;
51764;SDS011;37835;53.256;6.456;2022-12-18T01:52:13;115.33;;;39.87;;
51764;SDS011;37835;53.256;6.456;2022-12-18T01:54:39;117.50;;;40.27;;
51764;SDS011;37835;53.256;6.456;2022-12-18T01:57:05;110.50;;;40.43;;
51764;SDS011;37835;53.256;6.456;2022-12-18T01:59:31;113.10;;;39.63;;
51764;SDS011;37835;53.256;6.456;2022-12-18T02:01:58;122.00;;;40.57;;
51764;SDS011;37835;53.256;6.456;2022-12-18T02:04:25;115.03;;;40.00;;
51764;SDS011;37835;53.256;6.456;2022-12-18T02:06:57;102.53;;;37.10;;
51764;SDS011;37835;53.256;6.456;2022-12-18T02:09:44;109.77;;;38.63;;
51764;SDS011;37835;53.256;6.456;2022-12-18T02:12:15;108.78;;;36.83;;
51764;SDS011;37835;53.256;6.456;2022-12-18T02:14:45;108.40;;;39.57;;
51764;SDS011;37835;53.256;6.456;2022-12-18T02:17:23;111.03;;;39.50;;
51764;SDS011;37835;53.256;6.456;2022-12-18T02:20:05;108.43;;;38.40;;
51764;SDS011;37835;53.256;6.456;2022-12-18T02:22:57;104.77;;;37.53;;
51764;SDS011;37835;53.256;6.456;2022-12-18T02:28:26;106.90;;;36.27;;
51764;SDS011;37835;53.256;6.456;2022-12-18T02:30:56;99.17;;;36.50;;
51764;SDS011;37835;53.256;6.456;2022-12-18T02:33:24;99.17;;;37.97;;
51764;SDS011;37835;53.256;6.456;2022-12-18T02:35:51;113.40;;;39.10;;
51764;SDS011;37835;53.256;6.456;2022-12-18T02:38:18;99.47;;;37.17;;
51764;SDS011;37835;53.256;6.456;2022-12-18T02:40:44;99.03;;;37.53;;
51764;SDS011;37835;53.256;6.456;2022-12-18T02:43:12;103.80;;;39.77;;
51764;SDS011;37835;53.256;6.456;2022-12-18T02:45:48;106.77;;;38.60;;
51764;SDS011;37835;53.256;6.456;2022-12-18T02:48:22;99.75;;;38.53;;
51764;SDS011;37835;53.256;6.456;2022-12-18T02:51:03;106.57;;;38.10;;
51764;SDS011;37835;53.256;6.456;2022-12-18T02:53:36;106.07;;;38.60;;
51764;SDS011;37835;53.256;6.456;2022-12-18T02:58:46;104.93;;;36.80;;
51764;SDS011;37835;53.256;6.456;2022-12-18T03:01:19;96.30;;;35.97;;
51764;SDS011;37835;53.256;6.456;2022-12-18T03:04:09;99.37;;;36.80;;
51764;SDS011;37835;53.256;6.456;2022-12-18T03:06:45;106.57;;;36.73;;
51764;SDS011;37835;53.256;6.456;2022-12-18T03:09:14;103.53;;;36.80;;
51764;SDS011;37835;53.256;6.456;2022-12-18T03:11:41;101.83;;;36.63;;
51764;SDS011;37835;53.256;6.456;2022-12-18T03:14:29;105.53;;;37.60;;
51764;SDS011;37835;53.256;6.456;2022-12-18T03:16:58;105.30;;;38.43;;
51764;SDS011;37835;53.256;6.456;2022-12-18T03:19:27;107.53;;;37.93;;
51764;SDS011;37835;53.256;6.456;2022-12-18T03:21:57;100.77;;;35.67;;
51764;SDS011;37835;53.256;6.456;2022-12-18T03:24:25;100.90;;;39.20;;
51764;SDS011;37835;53.256;6.456;2022-12-18T03:26:54;102.70;;;37.50;;
51764;SDS011;37835;53.256;6.456;2022-12-18T03:29:31;105.15;;;39.35;;
51764;SDS011;37835;53.256;6.456;2022-12-18T03:32:09;113.03;;;38.80;;
51764;SDS011;37835;53.256;6.456;2022-12-18T03:34:40;110.10;;;39.10;;
51764;SDS011;37835;53.256;6.456;2022-12-18T03:37:11;105.20;;;37.17;;
51764;SDS011;37835;53.256;6.456;2022-12-18T03:39:36;108.23;;;37.47;;
51764;SDS011;37835;53.256;6.456;2022-12-18T03:42:45;110.50;;;40.30;;
51764;SDS011;37835;53.256;6.456;2022-12-18T03:44:54;109.00;;;38.03;;
51764;SDS011;37835;53.256;6.456;2022-12-18T03:50:29;109.87;;;39.10;;
51764;SDS011;37835;53.256;6.456;2022-12-18T03:53:24;116.10;;;40.50;;
51764;SDS011;37835;53.256;6.456;2022-12-18T03:55:57;112.40;;;41.00;;
51764;SDS011;37835;53.256;6.456;2022-12-18T03:58:25;118.50;;;41.03;;
51764;SDS011;37835;53.256;6.456;2022-12-18T04:00:52;106.60;;;40.33;;
51764;SDS011;37835;53.256;6.456;2022-12-18T04:03:20;110.07;;;40.60;;
51764;SDS011;37835;53.256;6.456;2022-12-18T04:05:48;110.30;;;38.73;;
51764;SDS011;37835;53.256;6.456;2022-12-18T04:08:16;104.10;;;38.67;;
51764;SDS011;37835;53.256;6.456;2022-12-18T04:10:42;105.40;;;39.60;;
51764;SDS011;37835;53.256;6.456;2022-12-18T04:13:08;109.20;;;40.13;;
51764;SDS011;37835;53.256;6.456;2022-12-18T04:15:34;108.70;;;39.53;;
51764;SDS011;37835;53.256;6.456;2022-12-18T04:18:01;120.57;;;41.40;;
51764;SDS011;37835;53.256;6.456;2022-12-18T04:20:27;110.20;;;40.60;;
51764;SDS011;37835;53.256;6.456;2022-12-18T04:22:52;109.37;;;39.73;;
51764;SDS011;37835;53.256;6.456;2022-12-18T04:25:18;116.53;;;40.00;;
51764;SDS011;37835;53.256;6.456;2022-12-18T04:27:43;112.87;;;40.37;;
51764;SDS011;37835;53.256;6.456;2022-12-18T04:30:09;107.67;;;41.83;;
51764;SDS011;37835;53.256;6.456;2022-12-18T04:32:35;111.40;;;40.27;;
51764;SDS011;37835;53.256;6.456;2022-12-18T04:35:01;110.50;;;41.70;;
51764;SDS011;37835;53.256;6.456;2022-12-18T04:37:29;112.40;;;39.73;;
51764;SDS011;37835;53.256;6.456;2022-12-18T04:39:54;102.70;;;39.93;;
51764;SDS011;37835;53.256;6.456;2022-12-18T04:42:20;109.43;;;39.57;;
51764;SDS011;37835;53.256;6.456;2022-12-18T04:44:46;108.17;;;39.73;;
51764;SDS011;37835;53.256;6.456;2022-12-18T04:47:11;107.73;;;38.37;;
51764;SDS011;37835;53.256;6.456;2022-12-18T04:49:37;100.77;;;38.83;;
51764;SDS011;37835;53.256;6.456;2022-12-18T04:52:02;108.07;;;40.17;;
51764;SDS011;37835;53.256;6.456;2022-12-18T04:54:28;99.53;;;37.60;;
51764;SDS011;37835;53.256;6.456;2022-12-18T04:56:54;107.63;;;39.70;;
51764;SDS011;37835;53.256;6.456;2022-12-18T04:59:19;109.40;;;38.47;;
51764;SDS011;37835;53.256;6.456;2022-12-18T05:01:45;100.50;;;37.97;;
51764;SDS011;37835;53.256;6.456;2022-12-18T05:04:11;105.33;;;39.10;;
51764;SDS011;37835;53.256;6.456;2022-12-18T05:06:36;104.47;;;37.70;;
51764;SDS011;37835;53.256;6.456;2022-12-18T05:09:02;102.10;;;39.17;;
51764;SDS011;37835;53.256;6.456;2022-12-18T05:11:27;106.07;;;36.40;;
51764;SDS011;37835;53.256;6.456;2022-12-18T05:13:53;103.83;;;38.13;;
51764;SDS011;37835;53.256;6.456;2022-12-18T05:16:19;103.93;;;36.70;;
51764;SDS011;37835;53.256;6.456;2022-12-18T05:18:44;94.17;;;36.43;;
51764;SDS011;37835;53.256;6.456;2022-12-18T05:21:10;95.47;;;36.23;;
51764;SDS011;37835;53.256;6.456;2022-12-18T05:23:35;104.73;;;36.30;;
51764;SDS011;37835;53.256;6.456;2022-12-18T05:26:02;95.70;;;36.97;;
51764;SDS011;37835;53.256;6.456;2022-12-18T05:28:30;107.43;;;36.63;;
51764;SDS011;37835;53.256;6.456;2022-12-18T05:30:58;98.37;;;36.40;;
51764;SDS011;37835;53.256;6.456;2022-12-18T05:33:25;93.23;;;35.07;;
51764;SDS011;37835;53.256;6.456;2022-12-18T05:35:54;111.47;;;37.70;;
51764;SDS011;37835;53.256;6.456;2022-12-18T05:38:21;102.33;;;36.90;;
51764;SDS011;37835;53.256;6.456;2022-12-18T05:40:48;96.73;;;35.70;;
51764;SDS011;37835;53.256;6.456;2022-12-18T05:43:14;103.33;;;35.77;;
51764;SDS011;37835;53.256;6.456;2022-12-18T05:45:40;102.80;;;36.37;;
51764;SDS011;37835;53.256;6.456;2022-12-18T05:48:06;107.00;;;36.67;;
51764;SDS011;37835;53.256;6.456;2022-12-18T05:50:35;101.63;;;35.23;;
51764;SDS011;37835;53.256;6.456;2022-12-18T05:53:02;96.60;;;34.80;;
51764;SDS011;37835;53.256;6.456;2022-12-18T05:55:29;94.20;;;35.37;;
51764;SDS011;37835;53.256;6.456;2022-12-18T05:57:57;95.17;;;35.27;;
51764;SDS011;37835;53.256;6.456;2022-12-18T06:00:23;102.90;;;35.93;;
51764;SDS011;37835;53.256;6.456;2022-12-18T06:02:48;101.17;;;37.67;;
51764;SDS011;37835;53.256;6.456;2022-12-18T06:05:14;101.43;;;35.33;;
51764;SDS011;37835;53.256;6.456;2022-12-18T06:07:39;103.33;;;35.50;;
51764;SDS011;37835;53.256;6.456;2022-12-18T06:10:05;94.93;;;34.17;;
51764;SDS011;37835;53.256;6.456;2022-12-18T06:12:31;94.10;;;34.53;;
51764;SDS011;37835;53.256;6.456;2022-12-18T06:14:58;94.03;;;33.57;;
51764;SDS011;37835;53.256;6.456;2022-12-18T06:17:31;94.87;;;35.73;;
51764;SDS011;37835;53.256;6.456;2022-12-18T06:19:59;95.73;;;36.10;;
51764;SDS011;37835;53.256;6.456;2022-12-18T06:22:26;95.87;;;35.50;;
51764;SDS011;37835;53.256;6.456;2022-12-18T06:24:51;96.57;;;34.83;;
51764;SDS011;37835;53.256;6.456;2022-12-18T06:27:17;96.57;;;33.83;;
51764;SDS011;37835;53.256;6.456;2022-12-18T06:29:42;98.77;;;34.23;;
51764;SDS011;37835;53.256;6.456;2022-12-18T06:32:08;94.13;;;33.20;;
51764;SDS011;37835;53.256;6.456;2022-12-18T06:34:34;90.30;;;34.17;;
51764;SDS011;37835;53.256;6.456;2022-12-18T06:37:02;99.50;;;33.80;;
51764;SDS011;37835;53.256;6.456;2022-12-18T06:39:27;99.50;;;33.97;;
51764;SDS011;37835;53.256;6.456;2022-12-18T06:41:53;93.00;;;34.50;;
51764;SDS011;37835;53.256;6.456;2022-12-18T06:44:19;87.93;;;33.40;;
51764;SDS011;37835;53.256;6.456;2022-12-18T06:46:44;91.53;;;34.13;;
51764;SDS011;37835;53.256;6.456;2022-12-18T06:49:10;88.93;;;32.50;;
51764;SDS011;37835;53.256;6.456;2022-12-18T06:51:36;91.53;;;33.60;;
51764;SDS011;37835;53.256;6.456;2022-12-18T06:54:01;90.80;;;32.47;;
51764;SDS011;37835;53.256;6.456;2022-12-18T06:56:28;81.50;;;31.37;;
51764;SDS011;37835;53.256;6.456;2022-12-18T06:58:53;85.47;;;32.47;;
51764;SDS011;37835;53.256;6.456;2022-12-18T07:01:20;85.87;;;31.67;;
51764;SDS011;37835;53.256;6.456;2022-12-18T07:03:46;82.87;;;30.97;;
51764;SDS011;37835;53.256;6.456;2022-12-18T07:06:16;86.50;;;32.83;;
51764;SDS011;37835;53.256;6.456;2022-12-18T07:08:43;73.60;;;29.93;;
51764;SDS011;37835;53.256;6.456;2022-12-18T07:11:09;82.33;;;31.53;;
51764;SDS011;37835;53.256;6.456;2022-12-18T07:13:35;77.17;;;30.17;;
51764;SDS011;37835;53.256;6.456;2022-12-18T07:16:05;80.33;;;30.70;;
51764;SDS011;37835;53.256;6.456;2022-12-18T07:18:41;71.73;;;28.67;;
51764;SDS011;37835;53.256;6.456;2022-12-18T07:21:07;74.80;;;29.17;;
51764;SDS011;37835;53.256;6.456;2022-12-18T07:23:35;71.63;;;27.97;;
51764;SDS011;37835;53.256;6.456;2022-12-18T07:26:04;70.20;;;28.00;;
51764;SDS011;37835;53.256;6.456;2022-12-18T07:28:35;69.40;;;27.70;;
51764;SDS011;37835;53.256;6.456;2022-12-18T07:31:05;72.07;;;28.40;;
51764;SDS011;37835;53.256;6.456;2022-12-18T07:33:32;75.13;;;28.03;;
51764;SDS011;37835;53.256;6.456;2022-12-18T07:36:02;68.90;;;27.37;;
51764;SDS011;37835;53.256;6.456;2022-12-18T07:38:30;66.05;;;26.58;;
51764;SDS011;37835;53.256;6.456;2022-12-18T07:41:04;61.47;;;25.90;;
51764;SDS011;37835;53.256;6.456;2022-12-18T07:43:31;62.70;;;26.30;;
51764;SDS011;37835;53.256;6.456;2022-12-18T07:45:57;68.17;;;26.97;;
51764;SDS011;37835;53.256;6.456;2022-12-18T07:48:22;60.27;;;25.00;;
51764;SDS011;37835;53.256;6.456;2022-12-18T07:50:48;61.37;;;24.97;;
51764;SDS011;37835;53.256;6.456;2022-12-18T07:53:13;62.30;;;25.27;;
51764;SDS011;37835;53.256;6.456;2022-12-18T07:55:39;58.93;;;25.07;;
51764;SDS011;37835;53.256;6.456;2022-12-18T07:58:06;61.73;;;25.50;;
51764;SDS011;37835;53.256;6.456;2022-12-18T08:00:32;61.30;;;25.83;;
51764;SDS011;37835;53.256;6.456;2022-12-18T08:02:58;60.00;;;24.80;;
51764;SDS011;37835;53.256;6.456;2022-12-18T08:05:24;60.37;;;25.77;;
51764;SDS011;37835;53.256;6.456;2022-12-18T08:07:49;59.80;;;26.00;;
51764;SDS011;37835;53.256;6.456;2022-12-18T08:10:15;60.87;;;25.57;;
51764;SDS011;37835;53.256;6.456;2022-12-18T08:12:41;56.40;;;25.00;;
51764;SDS011;37835;53.256;6.456;2022-12-18T08:15:06;61.37;;;26.00;;
51764;SDS011;37835;53.256;6.456;2022-12-18T08:17:32;58.70;;;27.10;;
51764;SDS011;37835;53.256;6.456;2022-12-18T08:19:58;57.20;;;24.90;;
51764;SDS011;37835;53.256;6.456;2022-12-18T08:22:23;57.20;;;26.17;;
51764;SDS011;37835;53.256;6.456;2022-12-18T08:24:49;59.73;;;26.03;;
51764;SDS011;37835;53.256;6.456;2022-12-18T08:27:15;53.70;;;25.87;;
51764;SDS011;37835;53.256;6.456;2022-12-18T08:29:41;54.47;;;25.83;;
51764;SDS011;37835;53.256;6.456;2022-12-18T08:32:06;50.43;;;24.03;;
51764;SDS011;37835;53.256;6.456;2022-12-18T08:34:32;58.80;;;25.27;;
51764;SDS011;37835;53.256;6.456;2022-12-18T08:36:58;51.53;;;23.63;;
51764;SDS011;37835;53.256;6.456;2022-12-18T08:39:23;49.77;;;24.00;;
51764;SDS011;37835;53.256;6.456;2022-12-18T08:41:49;51.80;;;23.93;;
51764;SDS011;37835;53.256;6.456;2022-12-18T08:44:33;47.83;;;23.63;;
51764;SDS011;37835;53.256;6.456;2022-12-18T08:47:02;51.20;;;24.20;;
51764;SDS011;37835;53.256;6.456;2022-12-18T08:49:28;53.23;;;24.80;;
51764;SDS011;37835;53.256;6.456;2022-12-18T08:51:54;51.53;;;23.90;;
51764;SDS011;37835;53.256;6.456;2022-12-18T08:54:22;45.10;;;24.13;;
51764;SDS011;37835;53.256;6.456;2022-12-18T08:56:47;49.73;;;24.57;;
51764;SDS011;37835;53.256;6.456;2022-12-18T08:59:14;51.47;;;25.10;;
51764;SDS011;37835;53.256;6.456;2022-12-18T09:01:41;48.97;;;23.63;;
51764;SDS011;37835;53.256;6.456;2022-12-18T09:04:07;54.77;;;24.43;;
51764;SDS011;37835;53.256;6.456;2022-12-18T09:06:33;50.67;;;24.10;;
51764;SDS011;37835;53.256;6.456;2022-12-18T09:08:59;50.60;;;23.63;;
51764;SDS011;37835;53.256;6.456;2022-12-18T09:11:26;45.07;;;22.60;;
51764;SDS011;37835;53.256;6.456;2022-12-18T09:13:53;45.73;;;22.70;;
51764;SDS011;37835;53.256;6.456;2022-12-18T09:16:19;42.20;;;22.53;;
51764;SDS011;37835;53.256;6.456;2022-12-18T09:18:45;43.97;;;22.90;;
51764;SDS011;37835;53.256;6.456;2022-12-18T09:21:13;42.57;;;21.70;;
51764;SDS011;37835;53.256;6.456;2022-12-18T09:23:43;49.65;;;22.73;;
51764;SDS011;37835;53.256;6.456;2022-12-18T09:26:13;46.30;;;22.57;;
51764;SDS011;37835;53.256;6.456;2022-12-18T09:28:39;47.87;;;23.20;;
51764;SDS011;37835;53.256;6.456;2022-12-18T09:31:06;45.20;;;23.03;;
51764;SDS011;37835;53.256;6.456;2022-12-18T09:33:36;46.03;;;23.03;;
51764;SDS011;37835;53.256;6.456;2022-12-18T09:36:03;46.20;;;22.80;;
51764;SDS011;37835;53.256;6.456;2022-12-18T09:38:29;47.10;;;22.63;;
51764;SDS011;37835;53.256;6.456;2022-12-18T09:40:57;42.87;;;22.33;;
51764;SDS011;37835;53.256;6.456;2022-12-18T09:45:59;45.60;;;21.93;;
51764;SDS011;37835;53.256;6.456;2022-12-18T09:48:32;46.80;;;22.03;;
51764;SDS011;37835;53.256;6.456;2022-12-18T09:51:07;40.17;;;22.07;;
51764;SDS011;37835;53.256;6.456;2022-12-18T09:53:47;41.07;;;21.27;;
51764;SDS011;37835;53.256;6.456;2022-12-18T09:56:18;37.23;;;20.23;;
51764;SDS011;37835;53.256;6.456;2022-12-18T09:58:50;38.27;;;20.30;;
51764;SDS011;37835;53.256;6.456;2022-12-18T10:01:22;40.77;;;21.17;;
51764;SDS011;37835;53.256;6.456;2022-12-18T10:03:48;37.17;;;20.03;;
51764;SDS011;37835;53.256;6.456;2022-12-18T10:06:19;37.80;;;20.07;;
51764;SDS011;37835;53.256;6.456;2022-12-18T10:08:52;39.50;;;20.63;;
51764;SDS011;37835;53.256;6.456;2022-12-18T10:11:32;36.37;;;19.73;;
51764;SDS011;37835;53.256;6.456;2022-12-18T10:14:09;35.30;;;19.17;;
51764;SDS011;37835;53.256;6.456;2022-12-18T10:16:51;38.60;;;20.00;;
51764;SDS011;37835;53.256;6.456;2022-12-18T10:21:51;38.17;;;20.47;;
51764;SDS011;37835;53.256;6.456;2022-12-18T10:24:41;43.97;;;21.83;;
51764;SDS011;37835;53.256;6.456;2022-12-18T10:27:25;50.10;;;23.73;;
51764;SDS011;37835;53.256;6.456;2022-12-18T10:29:52;38.13;;;19.37;;
51764;SDS011;37835;53.256;6.456;2022-12-18T10:32:23;37.47;;;19.50;;
51764;SDS011;37835;53.256;6.456;2022-12-18T10:34:55;50.47;;;22.90;;
51764;SDS011;37835;53.256;6.456;2022-12-18T10:37:23;40.90;;;20.20;;
51764;SDS011;37835;53.256;6.456;2022-12-18T10:40:06;32.60;;;18.13;;
51764;SDS011;37835;53.256;6.456;2022-12-18T10:42:34;33.20;;;18.13;;
51764;SDS011;37835;53.256;6.456;2022-12-18T10:45:01;33.80;;;18.70;;
51764;SDS011;37835;53.256;6.456;2022-12-18T10:47:41;36.87;;;18.67;;
51764;SDS011;37835;53.256;6.456;2022-12-18T10:50:26;33.72;;;18.15;;
51764;SDS011;37835;53.256;6.456;2022-12-18T10:52:56;28.90;;;16.30;;
51764;SDS011;37835;53.256;6.456;2022-12-18T10:55:24;31.07;;;17.63;;
51764;SDS011;37835;53.256;6.456;2022-12-18T11:03:36;27.33;;;15.30;;
51764;SDS011;37835;53.256;6.456;2022-12-18T11:06:03;26.00;;;14.17;;
51764;SDS011;37835;53.256;6.456;2022-12-18T11:08:30;26.37;;;14.83;;
51764;SDS011;37835;53.256;6.456;2022-12-18T11:10:56;23.97;;;13.37;;
51764;SDS011;37835;53.256;6.456;2022-12-18T11:13:25;23.27;;;13.97;;
51764;SDS011;37835;53.256;6.456;2022-12-18T11:15:53;22.25;;;13.23;;
51764;SDS011;37835;53.256;6.456;2022-12-18T11:18:22;24.60;;;13.73;;
51764;SDS011;37835;53.256;6.456;2022-12-18T11:23:32;24.53;;;13.53;;
51764;SDS011;37835;53.256;6.456;2022-12-18T11:25:59;36.13;;;15.97;;
51764;SDS011;37835;53.256;6.456;2022-12-18T11:31:12;29.97;;;14.50;;
51764;SDS011;37835;53.256;6.456;2022-12-18T11:36:44;22.43;;;13.37;;
51764;SDS011;37835;53.256;6.456;2022-12-18T11:39:25;21.57;;;12.13;;
51764;SDS011;37835;53.256;6.456;2022-12-18T11:44:59;20.47;;;11.67;;
51764;SDS011;37835;53.256;6.456;2022-12-18T11:50:18;26.30;;;11.85;;
51764;SDS011;37835;53.256;6.456;2022-12-18T11:52:47;18.43;;;10.63;;
51764;SDS011;37835;53.256;6.456;2022-12-18T11:55:19;18.70;;;10.73;;
51764;SDS011;37835;53.256;6.456;2022-12-18T12:01:08;17.03;;;10.40;;
51764;SDS011;37835;53.256;6.456;2022-12-18T12:03:47;15.73;;;9.80;;
51764;SDS011;37835;53.256;6.456;2022-12-18T12:06:31;19.57;;;10.90;;
51764;SDS011;37835;53.256;6.456;2022-12-18T12:09:08;19.60;;;9.93;;
51764;SDS011;37835;53.256;6.456;2022-12-18T12:11:46;15.77;;;9.67;;
51764;SDS011;37835;53.256;6.456;2022-12-18T12:14:20;15.00;;;9.07;;
51764;SDS011;37835;53.256;6.456;2022-12-18T12:17:07;14.82;;;9.25;;
51764;SDS011;37835;53.256;6.456;2022-12-18T12:20:07;18.00;;;8.77;;
51764;SDS011;37835;53.256;6.456;2022-12-18T12:22:55;12.93;;;8.13;;
51764;SDS011;37835;53.256;6.456;2022-12-18T12:28:27;18.60;;;9.50;;
51764;SDS011;37835;53.256;6.456;2022-12-18T12:34:02;12.63;;;7.90;;
51764;SDS011;37835;53.256;6.456;2022-12-18T12:39:13;12.50;;;7.93;;
51764;SDS011;37835;53.256;6.456;2022-12-18T12:41:41;14.60;;;8.13;;
51764;SDS011;37835;53.256;6.456;2022-12-18T12:44:30;12.37;;;8.10;;
51764;SDS011;37835;53.256;6.456;2022-12-18T12:47:10;15.93;;;9.57;;
51764;SDS011;37835;53.256;6.456;2022-12-18T12:49:40;15.67;;;8.87;;
51764;SDS011;37835;53.256;6.456;2022-12-18T12:52:13;13.57;;;8.50;;
51764;SDS011;37835;53.256;6.456;2022-12-18T12:54:41;14.03;;;8.13;;
51764;SDS011;37835;53.256;6.456;2022-12-18T12:57:30;13.23;;;8.20;;
51764;SDS011;37835;53.256;6.456;2022-12-18T13:00:05;14.07;;;8.33;;
51764;SDS011;37835;53.256;6.456;2022-12-18T13:02:47;12.70;;;8.43;;
51764;SDS011;37835;53.256;6.456;2022-12-18T13:05:34;12.23;;;7.77;;
51764;SDS011;37835;53.256;6.456;2022-12-18T13:08:10;11.57;;;8.17;;
51764;SDS011;37835;53.256;6.456;2022-12-18T13:10:46;12.67;;;7.97;;
51764;SDS011;37835;53.256;6.456;2022-12-18T13:13:15;17.07;;;7.90;;
51764;SDS011;37835;53.256;6.456;2022-12-18T13:15:45;14.80;;;8.67;;
51764;SDS011;37835;53.256;6.456;2022-12-18T13:18:23;14.05;;;7.35;;
51764;SDS011;37835;53.256;6.456;2022-12-18T13:25:54;10.50;;;6.77;;
51764;SDS011;37835;53.256;6.456;2022-12-18T13:31:58;11.07;;;6.90;;
51764;SDS011;37835;53.256;6.456;2022-12-18T13:36:45;13.53;;;7.53;;
51764;SDS011;37835;53.256;6.456;2022-12-18T13:39:20;13.03;;;6.43;;
51764;SDS011;37835;53.256;6.456;2022-12-18T13:41:50;9.73;;;6.63;;
51764;SDS011;37835;53.256;6.456;2022-12-18T13:44:58;15.83;;;7.80;;
51764;SDS011;37835;53.256;6.456;2022-12-18T13:47:42;12.50;;;7.93;;
51764;SDS011;37835;53.256;6.456;2022-12-18T13:50:09;12.50;;;6.60;;
51764;SDS011;37835;53.256;6.456;2022-12-18T13:52:48;12.47;;;7.73;;
51764;SDS011;37835;53.256;6.456;2022-12-18T13:55:14;14.33;;;7.53;;
51764;SDS011;37835;53.256;6.456;2022-12-18T13:57:43;14.57;;;8.00;;
51764;SDS011;37835;53.256;6.456;2022-12-18T14:02:54;9.47;;;6.77;;
51764;SDS011;37835;53.256;6.456;2022-12-18T14:05:24;10.50;;;7.43;;
51764;SDS011;37835;53.256;6.456;2022-12-18T14:07:50;12.97;;;8.10;;
51764;SDS011;37835;53.256;6.456;2022-12-18T14:10:17;13.57;;;8.10;;
51764;SDS011;37835;53.256;6.456;2022-12-18T14:12:47;13.40;;;8.77;;
51764;SDS011;37835;53.256;6.456;2022-12-18T14:15:25;16.57;;;9.77;;
51764;SDS011;37835;53.256;6.456;2022-12-18T14:20:59;13.53;;;8.27;;
51764;SDS011;37835;53.256;6.456;2022-12-18T14:23:36;15.47;;;8.53;;
51764;SDS011;37835;53.256;6.456;2022-12-18T14:26:25;21.70;;;10.93;;
51764;SDS011;37835;53.256;6.456;2022-12-18T14:28:55;13.90;;;8.73;;
51764;SDS011;37835;53.256;6.456;2022-12-18T14:31:23;13.93;;;8.90;;
51764;SDS011;37835;53.256;6.456;2022-12-18T14:33:51;14.57;;;8.30;;
51764;SDS011;37835;53.256;6.456;2022-12-18T14:36:18;13.80;;;8.13;;
51764;SDS011;37835;53.256;6.456;2022-12-18T14:39:04;14.03;;;9.00;;
51764;SDS011;37835;53.256;6.456;2022-12-18T14:41:29;10.97;;;7.60;;
51764;SDS011;37835;53.256;6.456;2022-12-18T14:43:55;12.80;;;7.90;;
51764;SDS011;37835;53.256;6.456;2022-12-18T14:48:57;14.50;;;9.00;;
51764;SDS011;37835;53.256;6.456;2022-12-18T14:51:26;12.57;;;7.83;;
51764;SDS011;37835;53.256;6.456;2022-12-18T14:54:02;11.67;;;8.10;;
51764;SDS011;37835;53.256;6.456;2022-12-18T14:56:36;13.80;;;8.43;;
51764;SDS011;37835;53.256;6.456;2022-12-18T14:59:15;15.83;;;7.87;;
51764;SDS011;37835;53.256;6.456;2022-12-18T15:04:36;11.83;;;8.03;;
51764;SDS011;37835;53.256;6.456;2022-12-18T15:07:26;15.20;;;8.73;;
51764;SDS011;37835;53.256;6.456;2022-12-18T15:12:47;18.30;;;10.47;;
51764;SDS011;37835;53.256;6.456;2022-12-18T15:23:17;15.07;;;9.57;;
51764;SDS011;37835;53.256;6.456;2022-12-18T15:25:58;16.20;;;10.40;;
51764;SDS011;37835;53.256;6.456;2022-12-18T15:28:31;19.17;;;11.27;;
51764;SDS011;37835;53.256;6.456;2022-12-18T15:33:35;16.67;;;9.83;;
51764;SDS011;37835;53.256;6.456;2022-12-18T15:36:04;17.53;;;10.37;;
51764;SDS011;37835;53.256;6.456;2022-12-18T15:38:33;15.63;;;9.90;;
51764;SDS011;37835;53.256;6.456;2022-12-18T15:40:59;17.70;;;11.40;;
51764;SDS011;37835;53.256;6.456;2022-12-18T15:43:25;17.90;;;10.33;;
51764;SDS011;37835;53.256;6.456;2022-12-18T15:46:01;14.87;;;9.90;;
51764;SDS011;37835;53.256;6.456;2022-12-18T15:48:28;17.13;;;9.97;;
51764;SDS011;37835;53.256;6.456;2022-12-18T15:50:54;15.60;;;10.03;;
51764;SDS011;37835;53.256;6.456;2022-12-18T15:53:22;18.63;;;10.40;;
51764;SDS011;37835;53.256;6.456;2022-12-18T15:55:54;18.33;;;11.00;;
51764;SDS011;37835;53.256;6.456;2022-12-18T15:58:38;18.10;;;10.90;;
51764;SDS011;37835;53.256;6.456;2022-12-18T16:01:04;18.10;;;10.97;;